Sidney Rae — WDJ3355 — position and weather

sailwx.info

Track history (hours):
 
Tides and Currents Weather Stations Pressure Air Temp Water Temp Dewpoint Dewpoint Depression Visibility Wind Speed Wind Dir Waves Ship Positions

Sidney Rae

Owner: ORION MARINE CONSTRUCTION, INC., PORT LAVACA, TX. More information available from US FCC via Universal Licensing System and Coast Guard Vessel Documentation Center.

Last reported at 2018-Jun-18 05:37 UTC. Time now 2018-Jun-18 09:33 UTC.
Position N 29°44' W 095°02'.

Length 20 m; draft 20 m.

Type: Tug. MMSI: 367767220.

Date/timePositionNaut miles runAvg speedWind from/ knotsBaromVisibWave heightAir tempDewpointWater temp
2018-Jun-18 05:37N 29°44' W 095°02'2 6.7
2018-Jun-18 05:21N 29°42' W 095°01'4 6.5
2018-Jun-18 04:48N 29°39' W 094°58'2 7.1
2018-Jun-18 04:30N 29°37' W 094°58'16 6.9
2018-Jun-18 02:14N 29°24' W 094°49'2 6.9
2018-Jun-18 01:59N 29°22' W 094°48'24 6.2
2018-Jun-17 22:10N 29°35' W 094°25'1 6.0
2018-Jun-17 22:00N 29°36' W 094°24'3 6.2
2018-Jun-17 21:29N 29°37' W 094°21'3 7.3
2018-Jun-17 21:00N 29°39' W 094°17'2 3.8
2018-Jun-17 20:30N 29°39' W 094°15'4 7.0
2018-Jun-17 20:00N 29°41' W 094°12'3 6.8
2018-Jun-17 19:31N 29°42' W 094°08'4 7.0
2018-Jun-17 19:00N 29°45' W 094°05'4 7.1
2018-Jun-17 18:31N 29°47' W 094°02'3 6.3
2018-Jun-17 18:00N 29°49' W 093°59'2 4.7
2018-Jun-17 17:30N 29°48' W 093°57'4 7.9
2018-Jun-17 17:00N 29°45' W 093°53'2 3.6
2018-Jun-17 16:31N 29°44' W 093°52'1 2.1
2018-Jun-17 16:01N 29°45' W 093°53'1 2.5
2018-Jun-17 15:30N 29°46' W 093°54'1 2.8
2018-Jun-17 15:00N 29°46' W 093°55'1 2.8
2018-Jun-17 14:31N 29°47' W 093°57'1 2.6
2018-Jun-17 14:01N 29°48' W 093°57'1 2.5
2018-Jun-17 13:31N 29°49' W 093°58'1 2.8
2018-Jun-17 13:00N 29°49' W 093°59'1 2.1
2018-Jun-17 12:31N 29°48' W 094°00'2 3.0
2018-Jun-17 12:01N 29°47' W 094°01'2 3.1
2018-Jun-17 11:30N 29°46' W 094°03'2 3.2
2018-Jun-17 11:00N 29°45' W 094°04'2 3.0
2018-Jun-17 10:30N 29°44' W 094°05'2 3.3
2018-Jun-17 10:00N 29°43' W 094°07'2 3.4
2018-Jun-17 09:29N 29°42' W 094°09'2 3.5
2018-Jun-17 09:00N 29°41' W 094°10'2 3.6
2018-Jun-17 08:30N 29°41' W 094°12'2 3.5
2018-Jun-17 08:00N 29°40' W 094°14'2 3.6
2018-Jun-17 07:29N 29°39' W 094°16'2 3.6
2018-Jun-17 07:00N 29°38' W 094°18'2 3.6
2018-Jun-17 06:30N 29°37' W 094°20'2 3.2
2018-Jun-17 06:00N 29°37' W 094°21'2 2.7
2018-Jun-17 05:24N 29°36' W 094°23'1 3.3
2018-Jun-17 05:00N 29°36' W 094°24'2 3.1
2018-Jun-17 04:19N 29°34' W 094°26'1 3.5
2018-Jun-17 04:00N 29°34' W 094°27'19 3.6
2018-Jun-16 22:48N 29°24' W 094°45'1 4.2
2018-Jun-16 22:30N 29°23' W 094°46'2 3.9
2018-Jun-16 21:56N 29°22' W 094°48'2 3.5
2018-Jun-16 21:28N 29°24' W 094°49'16 3.6
2018-Jun-16 16:58N 29°38' W 094°58'4 3.7
2018-Jun-16 15:59N 29°41' W 094°59'2 0.1
2018-Jun-16 00:52N 29°42' W 095°01'2 6.2
2018-Jun-16 00:28N 29°41' W 094°59'3 6.6
2018-Jun-16 00:00N 29°38' W 094°58'14 6.8
2018-Jun-15 21:53N 29°25' W 094°50'3 6.7
2018-Jun-15 21:30N 29°23' W 094°49'3 5.6
2018-Jun-15 21:00N 29°20' W 094°50'3 6.1
2018-Jun-15 20:30N 29°19' W 094°52'2 4.9
2018-Jun-15 20:00N 29°17' W 094°55'3 6.0
2018-Jun-15 19:30N 29°17' W 094°58'3 6.0
2018-Jun-15 19:00N 29°15' W 095°01'3 5.9
2018-Jun-15 18:31N 29°12' W 095°03'3 6.0
2018-Jun-15 18:00N 29°11' W 095°06'3 5.7
2018-Jun-15 17:31N 29°09' W 095°08'3 6.1
2018-Jun-15 17:00N 29°07' W 095°11'3 6.2
2018-Jun-15 16:30N 29°05' W 095°13'3 6.8
2018-Jun-15 16:00N 29°01' W 095°14'  
2018-Jun-13 10:25N 28°56' W 095°19'2 5.9
2018-Jun-13 10:00N 28°58' W 095°17'3 5.5
2018-Jun-13 09:30N 28°60' W 095°15'3 5.7
2018-Jun-13 09:00N 29°02' W 095°14'3 5.9
2018-Jun-13 08:30N 29°05' W 095°12'3 6.1
2018-Jun-13 08:00N 29°08' W 095°11'3 6.6
2018-Jun-13 07:30N 29°10' W 095°08'3 6.7
2018-Jun-13 07:00N 29°12' W 095°04'3 6.5
2018-Jun-13 06:30N 29°14' W 095°02'3 6.5
2018-Jun-13 06:00N 29°16' W 094°59'3 5.8
2018-Jun-13 05:30N 29°17' W 094°56'3 5.3
2018-Jun-13 05:00N 29°18' W 094°53'1 2.1
2018-Jun-13 04:29N 29°19' W 094°52'3 6.4
2018-Jun-13 04:00N 29°21' W 094°49'4 7.1
2018-Jun-13 03:30N 29°24' W 094°49'16 8.4
2018-Jun-13 01:32N 29°39' W 094°58'11 0.7
2018-Jun-12 11:07N 29°47' W 095°05'0 0.0
2018-Jun-11 05:17N 29°47' W 095°05'0 0.0
2018-Jun-11 03:53N 29°47' W 095°05'0 0.0
2018-Jun-11 03:28N 29°47' W 095°05'0 0.0
2018-Jun-11 02:59N 29°47' W 095°05'0 0.0
2018-Jun-11 02:29N 29°47' W 095°05'0 0.0
2018-Jun-11 01:58N 29°47' W 095°05'0 0.0
2018-Jun-11 01:02N 29°47' W 095°05'6 0.4
2018-Jun-10 07:21N 29°42' W 095°01'2 6.4
2018-Jun-10 07:00N 29°41' W 094°59'3 6.1
2018-Jun-10 06:30N 29°38' W 094°58'4 6.7
2018-Jun-10 05:58N 29°35' W 094°56'13 6.5
2018-Jun-10 03:57N 29°23' W 094°49'14 5.4
2018-Jun-10 01:19N 29°30' W 094°34'2 6.3
2018-Jun-10 00:55N 29°31' W 094°32'3 6.1
2018-Jun-10 00:30N 29°32' W 094°29'4 6.1
2018-Jun-09 23:48N 29°34' W 094°25'2 5.3
2018-Jun-09 23:30N 29°36' W 094°24'3 5.7
2018-Jun-09 23:00N 29°37' W 094°21'3 6.1
2018-Jun-09 22:30N 29°38' W 094°18'3 6.1
2018-Jun-09 22:00N 29°40' W 094°15'3 6.1
2018-Jun-09 21:30N 29°41' W 094°12'3 6.1
2018-Jun-09 21:00N 29°42' W 094°08'3 6.2
2018-Jun-09 20:30N 29°44' W 094°06'3 6.1
2018-Jun-09 20:00N 29°46' W 094°03'3 6.2
2018-Jun-09 19:30N 29°48' W 094°00'3 5.2
2018-Jun-09 19:00N 29°49' W 093°57'3 6.2
2018-Jun-09 18:30N 29°46' W 093°56'3 6.8
2018-Jun-09 18:00N 29°44' W 093°52'1 1.8
2018-Jun-09 17:30N 29°44' W 093°52'2 3.3
2018-Jun-09 17:00N 29°45' W 093°53'2 3.8
2018-Jun-09 16:30N 29°46' W 093°55'2 4.0
2018-Jun-09 16:00N 29°47' W 093°57'3 2.9
2018-Jun-09 15:00N 29°49' W 093°59'2 4.3
2018-Jun-09 14:30N 29°47' W 094°01'2 4.6
2018-Jun-09 14:00N 29°46' W 094°03'2 4.5
2018-Jun-09 13:30N 29°44' W 094°05'2 4.4
2018-Jun-09 13:00N 29°43' W 094°07'2 4.4
2018-Jun-09 12:30N 29°42' W 094°09'2 4.3
2018-Jun-09 12:00N 29°41' W 094°11'2 4.1
2018-Jun-09 11:30N 29°40' W 094°14'2 4.1
2018-Jun-09 10:58N 29°39' W 094°16'2 4.1
2018-Jun-09 10:30N 29°38' W 094°18'2 4.0
2018-Jun-09 10:00N 29°37' W 094°20'2 4.1
2018-Jun-09 09:30N 29°36' W 094°22'2 3.7
2018-Jun-09 08:59N 29°36' W 094°24'2 3.7
2018-Jun-09 08:26N 29°34' W 094°25'8 3.4
2018-Jun-09 06:07N 29°30' W 094°33'0 0.0
2018-Jun-09 05:49N 29°30' W 094°33'3 2.0
2018-Jun-09 04:31N 29°29' W 094°36'4 3.7
2018-Jun-09 03:28N 29°28' W 094°40'4 3.6
2018-Jun-09 02:28N 29°25' W 094°43'4 3.0
2018-Jun-09 01:03N 29°23' W 094°47'1 3.7
2018-Jun-09 00:47N 29°22' W 094°48'1 4.4
2018-Jun-09 00:28N 29°23' W 094°49'16 4.3
2018-Jun-08 20:38N 29°38' W 094°58'1 3.9
2018-Jun-08 20:30N 29°38' W 094°58'3 4.0
2018-Jun-08 19:47N 29°41' W 094°59'4 0.5
2018-Jun-08 11:38N 29°44' W 095°02'2 6.2
2018-Jun-08 11:21N 29°42' W 095°01'2 6.3
2018-Jun-08 10:59N 29°41' W 094°59'3 6.9
2018-Jun-08 10:30N 29°38' W 094°58'4 7.1
2018-Jun-08 10:00N 29°34' W 094°56'9 7.3
2018-Jun-08 08:48N 29°27' W 094°50'2 7.5
2018-Jun-08 08:29N 29°25' W 094°49'3 6.2
2018-Jun-08 07:58N 29°23' W 094°47'4 4.5
2018-Jun-08 07:09N 29°25' W 094°44'2 6.4
2018-Jun-08 06:53N 29°26' W 094°42'4 6.5
2018-Jun-08 06:15N 29°28' W 094°38'2 6.4
2018-Jun-08 06:00N 29°29' W 094°37'  
Track history (hours):
 
Tides and Currents Weather Stations Pressure Air Temp Water Temp Dewpoint Dewpoint Depression Visibility Wind Speed Wind Dir Waves Ship Positions

Sidney Rae

Owner: ORION MARINE CONSTRUCTION, INC., PORT LAVACA, TX. More information available from US FCC via Universal Licensing System and Coast Guard Vessel Documentation Center.

Last reported at 2018-Jun-18 05:37 UTC. Time now 2018-Jun-18 09:33 UTC.
Position N 29°44' W 095°02'.

Length 20 m; draft 20 m.

Type: Tug. MMSI: 367767220.

Date/timePositionNaut miles runAvg speedWind from/ knotsBaromVisibWave heightAir tempDewpointWater temp
2018-Jun-18 05:37N 29°44' W 095°02'2 6.7
2018-Jun-18 05:21N 29°42' W 095°01'4 6.5
2018-Jun-18 04:48N 29°39' W 094°58'2 7.1
2018-Jun-18 04:30N 29°37' W 094°58'16 6.9
2018-Jun-18 02:14N 29°24' W 094°49'2 6.9
2018-Jun-18 01:59N 29°22' W 094°48'24 6.2
2018-Jun-17 22:10N 29°35' W 094°25'1 6.0
2018-Jun-17 22:00N 29°36' W 094°24'3 6.2
2018-Jun-17 21:29N 29°37' W 094°21'3 7.3
2018-Jun-17 21:00N 29°39' W 094°17'2 3.8
2018-Jun-17 20:30N 29°39' W 094°15'4 7.0
2018-Jun-17 20:00N 29°41' W 094°12'3 6.8
2018-Jun-17 19:31N 29°42' W 094°08'4 7.0
2018-Jun-17 19:00N 29°45' W 094°05'4 7.1
2018-Jun-17 18:31N 29°47' W 094°02'3 6.3
2018-Jun-17 18:00N 29°49' W 093°59'2 4.7
2018-Jun-17 17:30N 29°48' W 093°57'4 7.9
2018-Jun-17 17:00N 29°45' W 093°53'2 3.6
2018-Jun-17 16:31N 29°44' W 093°52'1 2.1
2018-Jun-17 16:01N 29°45' W 093°53'1 2.5
2018-Jun-17 15:30N 29°46' W 093°54'1 2.8
2018-Jun-17 15:00N 29°46' W 093°55'1 2.8
2018-Jun-17 14:31N 29°47' W 093°57'1 2.6
2018-Jun-17 14:01N 29°48' W 093°57'1 2.5
2018-Jun-17 13:31N 29°49' W 093°58'1 2.8
2018-Jun-17 13:00N 29°49' W 093°59'1 2.1
2018-Jun-17 12:31N 29°48' W 094°00'2 3.0
2018-Jun-17 12:01N 29°47' W 094°01'2 3.1
2018-Jun-17 11:30N 29°46' W 094°03'2 3.2
2018-Jun-17 11:00N 29°45' W 094°04'2 3.0
2018-Jun-17 10:30N 29°44' W 094°05'2 3.3
2018-Jun-17 10:00N 29°43' W 094°07'2 3.4
2018-Jun-17 09:29N 29°42' W 094°09'2 3.5
2018-Jun-17 09:00N 29°41' W 094°10'2 3.6
2018-Jun-17 08:30N 29°41' W 094°12'2 3.5
2018-Jun-17 08:00N 29°40' W 094°14'2 3.6
2018-Jun-17 07:29N 29°39' W 094°16'2 3.6
2018-Jun-17 07:00N 29°38' W 094°18'2 3.6
2018-Jun-17 06:30N 29°37' W 094°20'2 3.2
2018-Jun-17 06:00N 29°37' W 094°21'2 2.7
2018-Jun-17 05:24N 29°36' W 094°23'1 3.3
2018-Jun-17 05:00N 29°36' W 094°24'2 3.1
2018-Jun-17 04:19N 29°34' W 094°26'1 3.5
2018-Jun-17 04:00N 29°34' W 094°27'19 3.6
2018-Jun-16 22:48N 29°24' W 094°45'1 4.2
2018-Jun-16 22:30N 29°23' W 094°46'2 3.9
2018-Jun-16 21:56N 29°22' W 094°48'2 3.5
2018-Jun-16 21:28N 29°24' W 094°49'16 3.6
2018-Jun-16 16:58N 29°38' W 094°58'4 3.7
2018-Jun-16 15:59N 29°41' W 094°59'2 0.1
2018-Jun-16 00:52N 29°42' W 095°01'2 6.2
2018-Jun-16 00:28N 29°41' W 094°59'3 6.6
2018-Jun-16 00:00N 29°38' W 094°58'14 6.8
2018-Jun-15 21:53N 29°25' W 094°50'3 6.7
2018-Jun-15 21:30N 29°23' W 094°49'3 5.6
2018-Jun-15 21:00N 29°20' W 094°50'3 6.1
2018-Jun-15 20:30N 29°19' W 094°52'2 4.9
2018-Jun-15 20:00N 29°17' W 094°55'3 6.0
2018-Jun-15 19:30N 29°17' W 094°58'3 6.0
2018-Jun-15 19:00N 29°15' W 095°01'3 5.9
2018-Jun-15 18:31N 29°12' W 095°03'3 6.0
2018-Jun-15 18:00N 29°11' W 095°06'3 5.7
2018-Jun-15 17:31N 29°09' W 095°08'3 6.1
2018-Jun-15 17:00N 29°07' W 095°11'3 6.2
2018-Jun-15 16:30N 29°05' W 095°13'3 6.8
2018-Jun-15 16:00N 29°01' W 095°14'  
2018-Jun-13 10:25N 28°56' W 095°19'2 5.9
2018-Jun-13 10:00N 28°58' W 095°17'3 5.5
2018-Jun-13 09:30N 28°60' W 095°15'3 5.7
2018-Jun-13 09:00N 29°02' W 095°14'3 5.9
2018-Jun-13 08:30N 29°05' W 095°12'3 6.1
2018-Jun-13 08:00N 29°08' W 095°11'3 6.6
2018-Jun-13 07:30N 29°10' W 095°08'3 6.7
2018-Jun-13 07:00N 29°12' W 095°04'3 6.5
2018-Jun-13 06:30N 29°14' W 095°02'3 6.5
2018-Jun-13 06:00N 29°16' W 094°59'3 5.8
2018-Jun-13 05:30N 29°17' W 094°56'3 5.3
2018-Jun-13 05:00N 29°18' W 094°53'1 2.1
2018-Jun-13 04:29N 29°19' W 094°52'3 6.4
2018-Jun-13 04:00N 29°21' W 094°49'4 7.1
2018-Jun-13 03:30N 29°24' W 094°49'16 8.4
2018-Jun-13 01:32N 29°39' W 094°58'11 0.7
2018-Jun-12 11:07N 29°47' W 095°05'0 0.0
2018-Jun-11 05:17N 29°47' W 095°05'0 0.0
2018-Jun-11 03:53N 29°47' W 095°05'0 0.0
2018-Jun-11 03:28N 29°47' W 095°05'0 0.0
2018-Jun-11 02:59N 29°47' W 095°05'0 0.0
2018-Jun-11 02:29N 29°47' W 095°05'0 0.0
2018-Jun-11 01:58N 29°47' W 095°05'0 0.0
2018-Jun-11 01:02N 29°47' W 095°05'6 0.4
2018-Jun-10 07:21N 29°42' W 095°01'2 6.4
2018-Jun-10 07:00N 29°41' W 094°59'3 6.1
2018-Jun-10 06:30N 29°38' W 094°58'4 6.7
2018-Jun-10 05:58N 29°35' W 094°56'13 6.5
2018-Jun-10 03:57N 29°23' W 094°49'14 5.4
2018-Jun-10 01:19N 29°30' W 094°34'2 6.3
2018-Jun-10 00:55N 29°31' W 094°32'3 6.1
2018-Jun-10 00:30N 29°32' W 094°29'4 6.1
2018-Jun-09 23:48N 29°34' W 094°25'2 5.3
2018-Jun-09 23:30N 29°36' W 094°24'3 5.7
2018-Jun-09 23:00N 29°37' W 094°21'3 6.1
2018-Jun-09 22:30N 29°38' W 094°18'3 6.1
2018-Jun-09 22:00N 29°40' W 094°15'3 6.1
2018-Jun-09 21:30N 29°41' W 094°12'3 6.1
2018-Jun-09 21:00N 29°42' W 094°08'3 6.2
2018-Jun-09 20:30N 29°44' W 094°06'3 6.1
2018-Jun-09 20:00N 29°46' W 094°03'3 6.2
2018-Jun-09 19:30N 29°48' W 094°00'3 5.2
2018-Jun-09 19:00N 29°49' W 093°57'3 6.2
2018-Jun-09 18:30N 29°46' W 093°56'3 6.8
2018-Jun-09 18:00N 29°44' W 093°52'1 1.8
2018-Jun-09 17:30N 29°44' W 093°52'2 3.3
2018-Jun-09 17:00N 29°45' W 093°53'2 3.8
2018-Jun-09 16:30N 29°46' W 093°55'2 4.0
2018-Jun-09 16:00N 29°47' W 093°57'3 2.9
2018-Jun-09 15:00N 29°49' W 093°59'2 4.3
2018-Jun-09 14:30N 29°47' W 094°01'2 4.6
2018-Jun-09 14:00N 29°46' W 094°03'2 4.5
2018-Jun-09 13:30N 29°44' W 094°05'2 4.4
2018-Jun-09 13:00N 29°43' W 094°07'2 4.4
2018-Jun-09 12:30N 29°42' W 094°09'2 4.3
2018-Jun-09 12:00N 29°41' W 094°11'2 4.1
2018-Jun-09 11:30N 29°40' W 094°14'2 4.1
2018-Jun-09 10:58N 29°39' W 094°16'2 4.1
2018-Jun-09 10:30N 29°38' W 094°18'2 4.0
2018-Jun-09 10:00N 29°37' W 094°20'2 4.1
2018-Jun-09 09:30N 29°36' W 094°22'2 3.7
2018-Jun-09 08:59N 29°36' W 094°24'2 3.7
2018-Jun-09 08:26N 29°34' W 094°25'8 3.4
2018-Jun-09 06:07N 29°30' W 094°33'0 0.0
2018-Jun-09 05:49N 29°30' W 094°33'3 2.0
2018-Jun-09 04:31N 29°29' W 094°36'4 3.7
2018-Jun-09 03:28N 29°28' W 094°40'4 3.6
2018-Jun-09 02:28N 29°25' W 094°43'4 3.0
2018-Jun-09 01:03N 29°23' W 094°47'1 3.7
2018-Jun-09 00:47N 29°22' W 094°48'1 4.4
2018-Jun-09 00:28N 29°23' W 094°49'16 4.3
2018-Jun-08 20:38N 29°38' W 094°58'1 3.9
2018-Jun-08 20:30N 29°38' W 094°58'3 4.0
2018-Jun-08 19:47N 29°41' W 094°59'4 0.5
2018-Jun-08 11:38N 29°44' W 095°02'2 6.2
2018-Jun-08 11:21N 29°42' W 095°01'2 6.3
2018-Jun-08 10:59N 29°41' W 094°59'3 6.9
2018-Jun-08 10:30N 29°38' W 094°58'4 7.1
2018-Jun-08 10:00N 29°34' W 094°56'9 7.3
2018-Jun-08 08:48N 29°27' W 094°50'2 7.5
2018-Jun-08 08:29N 29°25' W 094°49'3 6.2
2018-Jun-08 07:58N 29°23' W 094°47'4 4.5
2018-Jun-08 07:09N 29°25' W 094°44'2 6.4
2018-Jun-08 06:53N 29°26' W 094°42'4 6.5
2018-Jun-08 06:15N 29°28' W 094°38'2 6.4
2018-Jun-08 06:00N 29°29' W 094°37'  

Dump ship's entire track history